Time;durP1;ratioP1;P1;durP2;ratioP2;P2;SDS_P1;SDS_P2;PMS_P1;PMS_P2;Temp;Humidity;BMP_temperature;BMP_pressure;BME280_temperature;BME280_humidity;BME280_pressure;Samples;Min_cycle;Max_cycle;Signal;HPM_P1;HPM_P2
2023/07/01 00:03:57;;;;;;;18.88;16.38;;;;;;;;;;10487805;28;20104;-80
2023/07/01 00:08:58;;;;;;;21.23;18.25;;;;;;;;;;10488838;28;20375;-82
2023/07/01 00:13:59;;;;;;;20.90;18.63;;;;;;;;;;10487513;28;20100;-82
2023/07/01 00:19:00;;;;;;;22.92;18.73;;;;;;;;;;10481745;28;20041;-84
2023/07/01 00:24:01;;;;;;;18.30;16.25;;;;;;;;;;10488457;28;20116;-83
2023/07/01 00:29:03;;;;;;;19.00;16.42;;;;;;;;;;10485440;28;20344;-83
2023/07/01 00:34:04;;;;;;;19.58;16.65;;;;;;;;;;10476154;28;20546;-82
2023/07/01 00:39:05;;;;;;;21.58;17.05;;;;;;;;;;10462764;28;20491;-84
2023/07/01 00:44:06;;;;;;;22.15;18.45;;;;;;;;;;10474970;28;20067;-83
2023/07/01 00:49:07;;;;;;;20.50;17.95;;;;;;;;;;10487112;28;20111;-82
2023/07/01 00:54:08;;;;;;;20.83;18.42;;;;;;;;;;10488014;28;20028;-82
2023/07/01 00:59:09;;;;;;;18.13;15.07;;;;;;;;;;10495811;28;20053;-83
2023/07/01 01:04:23;;;;;;;18.98;16.08;;;;;;;;;;10496122;28;20078;-83
2023/07/01 01:09:31;;;;;;;19.83;15.70;;;;;;;;;;10495866;28;20113;-84
2023/07/01 01:14:33;;;;;;;23.17;18.58;;;;;;;;;;10496147;28;20024;-84
2023/07/01 01:19:34;;;;;;;20.77;16.42;;;;;;;;;;10495245;28;20431;-83
2023/07/01 01:24:38;;;;;;;21.27;16.88;;;;;;;;;;10494925;28;20067;-82
2023/07/01 01:29:39;;;;;;;21.88;17.55;;;;;;;;;;10496114;28;20411;-83
2023/07/01 01:34:40;;;;;;;25.65;18.77;;;;;;;;;;10494494;28;20032;-83
2023/07/01 01:39:44;;;;;;;23.35;18.85;;;;;;;;;;10494471;28;20040;-83
2023/07/01 01:44:51;;;;;;;29.08;21.48;;;;;;;;;;10495171;28;20115;-84
2023/07/01 01:50:11;;;;;;;37.15;25.58;;;;;;;;;;10494326;28;20380;-82
2023/07/01 01:55:12;;;;;;;58.97;27.60;;;;;;;;;;10494764;28;20032;-82
2023/07/01 02:00:14;;;;;;;40.95;27.88;;;;;;;;;;10493889;28;20059;-82
2023/07/01 02:05:15;;;;;;;40.40;27.20;;;;;;;;;;10494168;28;20021;-82
2023/07/01 02:10:16;;;;;;;42.22;27.13;;;;;;;;;;10492305;28;20032;-83
2023/07/01 02:15:16;;;;;;;44.92;29.25;;;;;;;;;;10493238;28;20028;-82
2023/07/01 02:20:17;;;;;;;51.40;33.08;;;;;;;;;;10492856;28;20029;-82
2023/07/01 02:25:18;;;;;;;56.25;34.17;;;;;;;;;;10492724;28;20024;-83
2023/07/01 02:30:19;;;;;;;71.65;38.33;;;;;;;;;;10492976;28;20040;-83
2023/07/01 02:35:20;;;;;;;80.82;41.47;;;;;;;;;;10493107;28;20123;-83
2023/07/01 02:40:21;;;;;;;59.30;35.53;;;;;;;;;;10491893;28;20032;-83
2023/07/01 02:45:22;;;;;;;79.28;39.88;;;;;;;;;;10491851;28;20025;-84
2023/07/01 02:50:23;;;;;;;125.28;53.50;;;;;;;;;;10492183;28;20024;-85
2023/07/01 02:55:29;;;;;;;65.78;38.72;;;;;;;;;;10491603;28;20036;-83
2023/07/01 03:00:30;;;;;;;79.68;43.50;;;;;;;;;;10492011;28;20071;-83
2023/07/01 03:05:31;;;;;;;132.27;54.72;;;;;;;;;;10489475;28;20032;-84
2023/07/01 03:10:32;;;;;;;105.47;50.83;;;;;;;;;;10491490;28;20024;-83
2023/07/01 03:15:33;;;;;;;71.28;41.60;;;;;;;;;;10491205;28;20594;-83
2023/07/01 03:20:34;;;;;;;109.82;51.20;;;;;;;;;;10490237;28;20037;-83
2023/07/01 03:25:35;;;;;;;96.95;48.50;;;;;;;;;;10490852;28;20027;-83
2023/07/01 03:30:36;;;;;;;112.68;52.35;;;;;;;;;;10490547;28;20020;-83
2023/07/01 03:35:37;;;;;;;137.65;60.90;;;;;;;;;;10489909;28;20029;-84
2023/07/01 03:40:38;;;;;;;92.55;48.30;;;;;;;;;;10490322;28;20396;-84
2023/07/01 03:45:39;;;;;;;75.57;44.33;;;;;;;;;;10489867;28;20033;-85
2023/07/01 03:50:40;;;;;;;64.63;40.13;;;;;;;;;;10487336;28;20072;-84
2023/07/01 03:55:41;;;;;;;78.70;43.38;;;;;;;;;;10489968;28;20047;-84
2023/07/01 04:00:42;;;;;;;101.38;49.85;;;;;;;;;;10485568;28;20064;-84
2023/07/01 04:05:43;;;;;;;79.97;45.95;;;;;;;;;;10487804;28;20155;-84
2023/07/01 04:10:44;;;;;;;99.38;51.15;;;;;;;;;;10488104;28;20025;-83
2023/07/01 04:15:45;;;;;;;90.75;47.88;;;;;;;;;;10480293;28;20491;-84
2023/07/01 04:20:46;;;;;;;66.47;39.60;;;;;;;;;;10484284;28;20095;-84
2023/07/01 04:25:48;;;;;;;78.30;43.65;;;;;;;;;;10485335;28;20111;-86
2023/07/01 04:30:49;;;;;;;60.15;38.90;;;;;;;;;;10467631;28;20743;-84
2023/07/01 04:35:49;;;;;;;80.13;44.88;;;;;;;;;;10486648;28;20032;-87
2023/07/01 04:40:50;;;;;;;77.75;43.90;;;;;;;;;;10487964;28;20048;-84
2023/07/01 04:45:51;;;;;;;66.65;41.92;;;;;;;;;;10487695;28;20036;-82
2023/07/01 04:50:53;;;;;;;49.40;34.25;;;;;;;;;;10486723;28;20686;-84
2023/07/01 04:55:55;;;;;;;63.75;39.42;;;;;;;;;;10487079;28;20049;-84
2023/07/01 05:00:56;;;;;;;67.60;41.20;;;;;;;;;;10482250;28;20041;-85
2023/07/01 05:05:57;;;;;;;59.90;37.38;;;;;;;;;;10487321;22;20053;-86
2023/07/01 05:10:58;;;;;;;66.63;41.97;;;;;;;;;;10401482;28;20143;-86
2023/07/01 05:15:59;;;;;;;65.28;40.50;;;;;;;;;;10401079;28;20496;-87
2023/07/01 05:21:00;;;;;;;58.10;37.83;;;;;;;;;;10403806;28;20116;-90
2023/07/01 05:26:01;;;;;;;51.78;36.60;;;;;;;;;;10404729;28;20026;-89
2023/07/01 05:31:02;;;;;;;80.63;45.67;;;;;;;;;;10403601;28;20048;-86
2023/07/01 05:36:03;;;;;;;65.32;40.25;;;;;;;;;;10402974;28;20049;-87
2023/07/01 05:41:04;;;;;;;70.93;40.92;;;;;;;;;;10402864;28;20037;-86
2023/07/01 05:46:05;;;;;;;70.35;42.97;;;;;;;;;;10412204;28;20033;-88
2023/07/01 05:51:06;;;;;;;91.80;48.85;;;;;;;;;;10410162;28;20041;-86
2023/07/01 05:56:07;;;;;;;62.92;41.50;;;;;;;;;;10411126;28;20025;-87
2023/07/01 06:01:08;;;;;;;59.22;39.10;;;;;;;;;;10409704;28;20048;-87
2023/07/01 06:06:09;;;;;;;55.30;38.03;;;;;;;;;;10409352;28;20057;-88
2023/07/01 06:11:10;;;;;;;67.47;42.28;;;;;;;;;;10410970;28;20037;-88
2023/07/01 06:16:12;;;;;;;48.67;35.53;;;;;;;;;;10410827;28;20033;-85
2023/07/01 06:21:13;;;;;;;54.15;36.67;;;;;;;;;;10410434;28;20504;-86
2023/07/01 06:26:15;;;;;;;50.08;37.00;;;;;;;;;;10408636;28;20036;-85
2023/07/01 06:31:16;;;;;;;74.65;48.53;;;;;;;;;;10410832;28;20507;-85
2023/07/01 06:50:26;;;;;;;45.65;32.60;;;;;;;;;;10554504;27;20466;-85
2023/07/01 06:55:27;;;;;;;54.63;35.67;;;;;;;;;;10550256;28;20450;-86
2023/07/01 07:00:29;;;;;;;43.67;32.05;;;;;;;;;;10532713;28;20032;-87
2023/07/01 07:05:30;;;;;;;47.13;32.53;;;;;;;;;;10547225;28;20123;-85
2023/07/01 07:10:31;;;;;;;44.30;33.88;;;;;;;;;;10545737;28;20058;-86
2023/07/01 07:15:32;;;;;;;55.00;37.67;;;;;;;;;;10537011;28;20024;-85
2023/07/01 07:20:33;;;;;;;60.67;41.25;;;;;;;;;;10536381;28;20122;-85
2023/07/01 07:25:35;;;;;;;68.63;45.10;;;;;;;;;;10543227;28;20058;-85
2023/07/01 07:30:37;;;;;;;61.72;41.33;;;;;;;;;;10540046;28;20054;-84
2023/07/01 07:35:38;;;;;;;48.83;35.80;;;;;;;;;;10549772;28;20026;-84
2023/07/01 07:40:39;;;;;;;34.72;26.92;;;;;;;;;;10548948;28;20561;-85
2023/07/01 07:45:40;;;;;;;33.47;26.95;;;;;;;;;;10551628;28;20036;-86
2023/07/01 07:50:41;;;;;;;31.45;24.65;;;;;;;;;;10554805;27;20032;-84
2023/07/01 07:55:42;;;;;;;26.90;21.55;;;;;;;;;;10561988;28;20116;-85
2023/07/01 08:00:43;;;;;;;21.48;16.33;;;;;;;;;;10556545;28;20024;-85
2023/07/01 08:05:44;;;;;;;33.78;25.98;;;;;;;;;;10549203;28;20840;-85
2023/07/01 08:10:45;;;;;;;27.88;21.80;;;;;;;;;;10548867;28;20156;-87
2023/07/01 08:15:47;;;;;;;28.35;21.45;;;;;;;;;;10562784;28;20058;-85
2023/07/01 08:20:50;;;;;;;27.17;22.35;;;;;;;;;;10560702;28;20040;-84
2023/07/01 08:25:51;;;;;;;26.55;20.77;;;;;;;;;;10550826;28;20035;-85
2023/07/01 08:30:52;;;;;;;27.23;21.13;;;;;;;;;;10538656;28;20062;-86
2023/07/01 08:35:53;;;;;;;26.85;20.40;;;;;;;;;;10547868;28;20076;-84
2023/07/01 08:40:55;;;;;;;23.27;20.05;;;;;;;;;;10545997;28;20031;-84
2023/07/01 08:46:00;;;;;;;29.27;21.95;;;;;;;;;;10543020;28;20097;-86
2023/07/01 08:51:07;;;;;;;26.35;21.73;;;;;;;;;;10522673;28;20032;-85
2023/07/01 08:56:09;;;;;;;25.88;21.75;;;;;;;;;;10539630;28;20032;-89
2023/07/01 09:01:10;;;;;;;21.55;18.30;;;;;;;;;;10530428;28;20039;-87
2023/07/01 09:06:11;;;;;;;22.55;18.45;;;;;;;;;;10522465;28;20093;-85
2023/07/01 09:11:14;;;;;;;25.67;21.27;;;;;;;;;;10543577;28;20066;-85
2023/07/01 09:16:32;;;;;;;19.63;17.48;;;;;;;;;;10549279;28;20093;-85
2023/07/01 09:21:33;;;;;;;26.13;20.65;;;;;;;;;;10472241;22;20131;-87
2023/07/01 09:26:34;;;;;;;21.33;18.27;;;;;;;;;;10447239;28;20025;-84
2023/07/01 09:37:17;;;;;;;19.08;17.02;;;;;;;;;;10450899;28;20044;-88
2023/07/01 09:42:18;;;;;;;19.00;16.25;;;;;;;;;;10460095;23;20525;-86
2023/07/01 09:47:25;;;;;;;22.20;18.80;;;;;;;;;;10428567;28;20119;-87
2023/07/01 09:52:33;;;;;;;18.60;15.27;;;;;;;;;;10428244;28;20029;-85
2023/07/01 09:57:34;;;;;;;20.10;17.05;;;;;;;;;;10445850;28;20135;-85
2023/07/01 10:02:36;;;;;;;25.58;20.05;;;;;;;;;;10428459;28;20033;-85
2023/07/01 10:07:49;;;;;;;20.45;17.52;;;;;;;;;;10427910;28;20033;-86
2023/07/01 10:12:51;;;;;;;23.35;19.20;;;;;;;;;;10472141;22;20105;-86
2023/07/01 10:17:53;;;;;;;19.52;16.73;;;;;;;;;;10525788;28;20028;-86
2023/07/01 10:23:08;;;;;;;19.95;17.75;;;;;;;;;;10543157;28;20470;-85
2023/07/01 10:28:51;;;;;;;;;;;;;;;;;;;;;
2023/07/01 10:33:54;;;;;;;20.58;18.23;;;;;;;;;;10542886;28;20032;-88
2023/07/01 10:39:16;;;;;;;18.77;16.10;;;;;;;;;;10568536;28;20039;-85
2023/07/01 10:44:23;;;;;;;18.05;15.52;;;;;;;;;;10530523;28;20594;-85
2023/07/01 10:49:25;;;;;;;22.23;17.48;;;;;;;;;;10554047;28;20375;-86
2023/07/01 10:54:53;;;;;;;21.40;16.63;;;;;;;;;;10523911;28;20177;-87
2023/07/01 11:00:17;;;;;;;24.80;20.65;;;;;;;;;;10513869;28;20129;-88
2023/07/01 11:05:18;;;;;;;29.63;22.50;;;;;;;;;;10505332;28;20036;-86
2023/07/01 11:10:19;;;;;;;26.20;22.00;;;;;;;;;;10537835;28;20646;-87
2023/07/01 11:15:20;;;;;;;27.58;23.48;;;;;;;;;;10568921;28;20063;-88
2023/07/01 11:20:21;;;;;;;24.55;19.90;;;;;;;;;;10570323;28;20494;-85
2023/07/01 11:25:24;;;;;;;29.63;23.48;;;;;;;;;;10557772;28;20019;-85
2023/07/01 11:30:31;;;;;;;31.98;25.50;;;;;;;;;;10577083;28;20034;-86
2023/07/01 11:35:48;;;;;;;25.25;21.63;;;;;;;;;;10542789;28;20028;-85
2023/07/01 11:40:49;;;;;;;30.48;24.83;;;;;;;;;;10504001;28;20032;-87
2023/07/01 11:45:50;;;;;;;33.95;25.27;;;;;;;;;;10515762;28;20027;-88
2023/07/01 11:50:52;;;;;;;28.55;23.50;;;;;;;;;;10508290;28;20371;-83
2023/07/01 11:56:01;;;;;;;25.67;22.35;;;;;;;;;;10515208;28;20097;-87
2023/07/01 12:01:02;;;;;;;27.17;23.13;;;;;;;;;;10517310;28;20035;-87
2023/07/01 12:06:04;;;;;;;26.02;22.75;;;;;;;;;;10511590;28;20028;-84
2023/07/01 12:11:15;;;;;;;25.15;22.45;;;;;;;;;;10523489;28;20020;-86
2023/07/01 12:16:16;;;;;;;23.92;20.58;;;;;;;;;;10515812;28;20038;-84
2023/07/01 12:21:17;;;;;;;23.98;21.30;;;;;;;;;;10545082;28;20483;-85
2023/07/01 12:26:18;;;;;;;25.73;21.27;;;;;;;;;;10538073;28;20028;-85
2023/07/01 12:31:19;;;;;;;24.08;19.38;;;;;;;;;;10547761;28;20036;-86
2023/07/01 12:36:20;;;;;;;21.75;18.58;;;;;;;;;;10532554;28;20036;-85
2023/07/01 12:41:21;;;;;;;23.27;19.73;;;;;;;;;;10562647;28;20028;-87
2023/07/01 12:46:23;;;;;;;25.70;19.95;;;;;;;;;;10520213;28;20027;-85
2023/07/01 12:51:24;;;;;;;23.23;18.77;;;;;;;;;;10535551;28;20032;-85
2023/07/01 12:56:26;;;;;;;21.65;17.15;;;;;;;;;;10530254;28;20078;-86
2023/07/01 13:01:26;;;;;;;18.05;16.15;;;;;;;;;;10549354;28;20032;-83
2023/07/01 13:06:30;;;;;;;18.77;15.80;;;;;;;;;;10529180;28;20032;-85
2023/07/01 13:11:32;;;;;;;17.75;14.88;;;;;;;;;;10562152;28;20514;-88
2023/07/01 13:16:35;;;;;;;17.63;14.82;;;;;;;;;;10549011;28;20497;-85
2023/07/01 13:21:39;;;;;;;18.58;14.55;;;;;;;;;;10537370;28;20027;-86
2023/07/01 13:26:40;;;;;;;16.80;13.93;;;;;;;;;;10563677;28;20027;-84
2023/07/01 13:31:42;;;;;;;16.20;14.27;;;;;;;;;;10545594;28;20069;-85
2023/07/01 13:36:44;;;;;;;17.27;15.32;;;;;;;;;;10545394;28;20043;-84
2023/07/01 13:41:45;;;;;;;17.83;14.88;;;;;;;;;;10561933;28;20096;-86
2023/07/01 13:46:46;;;;;;;18.60;15.02;;;;;;;;;;10558741;28;20124;-85
2023/07/01 13:51:51;;;;;;;18.42;14.50;;;;;;;;;;10551169;28;20015;-84
2023/07/01 13:56:53;;;;;;;18.60;16.23;;;;;;;;;;10537898;28;20483;-85
2023/07/01 14:01:57;;;;;;;18.80;15.93;;;;;;;;;;10556647;28;20382;-84
2023/07/01 14:07:00;;;;;;;21.23;15.77;;;;;;;;;;10543003;28;20136;-85
2023/07/01 14:12:01;;;;;;;18.30;15.18;;;;;;;;;;10538287;28;20066;-84
2023/07/01 14:17:03;;;;;;;19.83;16.25;;;;;;;;;;10535844;28;20043;-84
2023/07/01 14:22:04;;;;;;;21.65;17.23;;;;;;;;;;10559546;28;20027;-85
2023/07/01 14:27:05;;;;;;;20.58;17.08;;;;;;;;;;10570004;28;20382;-85
2023/07/01 14:32:07;;;;;;;20.02;16.75;;;;;;;;;;10539040;28;20022;-85
2023/07/01 14:37:08;;;;;;;26.30;17.08;;;;;;;;;;10542851;28;20118;-84
2023/07/01 14:42:09;;;;;;;19.77;16.50;;;;;;;;;;10548027;28;20070;-84
2023/07/01 14:47:10;;;;;;;20.48;16.35;;;;;;;;;;10546994;28;20535;-86
2023/07/01 14:52:42;;;;;;;20.45;15.90;;;;;;;;;;10564562;28;20104;-84
2023/07/01 14:57:43;;;;;;;18.52;15.48;;;;;;;;;;10529090;28;20043;-83
2023/07/01 15:02:44;;;;;;;17.40;14.02;;;;;;;;;;10567242;28;20035;-84
2023/07/01 15:07:45;;;;;;;18.55;14.23;;;;;;;;;;10531479;28;20024;-84
2023/07/01 15:12:46;;;;;;;19.95;14.00;;;;;;;;;;10530476;28;20363;-84
2023/07/01 15:17:47;;;;;;;16.40;13.10;;;;;;;;;;10561001;28;20037;-84
2023/07/01 15:22:48;;;;;;;19.80;13.27;;;;;;;;;;10536714;28;20038;-84
2023/07/01 15:27:49;;;;;;;20.55;14.73;;;;;;;;;;10556987;28;20041;-83
2023/07/01 15:32:50;;;;;;;18.58;13.95;;;;;;;;;;10565166;28;20023;-85
2023/07/01 15:37:52;;;;;;;17.60;14.77;;;;;;;;;;10579580;28;20035;-84
2023/07/01 15:42:53;;;;;;;15.95;13.73;;;;;;;;;;10551637;28;20028;-84
2023/07/01 15:47:54;;;;;;;18.13;14.32;;;;;;;;;;10578171;28;20035;-84
2023/07/01 15:52:55;;;;;;;18.27;13.95;;;;;;;;;;10560132;28;20036;-85
2023/07/01 15:57:56;;;;;;;19.20;15.05;;;;;;;;;;10559045;28;20040;-86
2023/07/01 16:02:57;;;;;;;17.45;13.80;;;;;;;;;;10548186;28;20031;-84
2023/07/01 16:08:07;;;;;;;24.10;14.20;;;;;;;;;;10548394;28;20543;-85
2023/07/01 16:13:08;;;;;;;19.25;13.35;;;;;;;;;;10546484;28;20601;-84
2023/07/01 16:18:25;;;;;;;18.52;13.93;;;;;;;;;;10552640;28;20042;-84
2023/07/01 16:23:26;;;;;;;16.98;13.88;;;;;;;;;;10577621;28;20486;-84
2023/07/01 16:28:38;;;;;;;16.25;13.07;;;;;;;;;;10548502;28;20035;-84
2023/07/01 16:33:39;;;;;;;18.20;13.70;;;;;;;;;;10558128;28;20088;-84
2023/07/01 16:38:40;;;;;;;19.20;14.13;;;;;;;;;;10550735;28;20622;-86
2023/07/01 16:43:42;;;;;;;16.75;13.40;;;;;;;;;;10537348;28;20054;-85
2023/07/01 16:48:52;;;;;;;16.55;12.93;;;;;;;;;;10513336;28;20081;-84
2023/07/01 16:54:10;;;;;;;17.63;12.95;;;;;;;;;;10544982;28;20531;-85
2023/07/01 16:59:17;;;;;;;14.95;11.93;;;;;;;;;;10533683;28;20036;-85
2023/07/01 17:04:28;;;;;;;15.10;11.90;;;;;;;;;;10552172;28;20050;-85
2023/07/01 17:09:29;;;;;;;16.55;12.20;;;;;;;;;;10559046;28;20043;-85
2023/07/01 17:14:43;;;;;;;16.58;12.85;;;;;;;;;;10496434;28;20063;-85
2023/07/01 17:19:44;;;;;;;15.40;11.73;;;;;;;;;;10450361;28;20037;-85
2023/07/01 17:24:45;;;;;;;18.63;13.10;;;;;;;;;;10452960;28;20494;-85
2023/07/01 17:29:47;;;;;;;15.32;11.77;;;;;;;;;;10480612;28;20041;-85
2023/07/01 17:35:07;;;;;;;15.88;11.45;;;;;;;;;;10464838;28;20043;-87
2023/07/01 17:40:08;;;;;;;16.13;11.93;;;;;;;;;;10446634;28;20362;-85
2023/07/01 17:45:09;;;;;;;16.92;12.63;;;;;;;;;;10459481;28;20091;-87
2023/07/01 17:50:11;;;;;;;17.55;13.23;;;;;;;;;;10477470;28;20033;-84
2023/07/01 17:55:13;;;;;;;19.55;14.43;;;;;;;;;;10461303;28;20497;-85
2023/07/01 18:00:14;;;;;;;23.48;17.70;;;;;;;;;;10474768;28;20063;-85
2023/07/01 18:05:15;;;;;;;24.95;19.35;;;;;;;;;;10463129;28;20029;-85
2023/07/01 18:10:16;;;;;;;34.75;25.10;;;;;;;;;;10479844;28;20040;-85
2023/07/01 18:15:17;;;;;;;29.55;21.00;;;;;;;;;;10536774;28;20066;-84
2023/07/01 18:20:18;;;;;;;27.50;20.02;;;;;;;;;;10536909;28;20043;-85
2023/07/01 18:25:19;;;;;;;31.20;20.65;;;;;;;;;;10525950;28;20032;-86
2023/07/01 18:30:20;;;;;;;27.92;20.42;;;;;;;;;;10502903;28;20498;-85
2023/07/01 18:35:21;;;;;;;24.65;18.15;;;;;;;;;;10563900;28;20493;-85
2023/07/01 18:40:22;;;;;;;21.95;18.08;;;;;;;;;;10551378;28;20059;-85
2023/07/01 18:45:23;;;;;;;23.52;17.23;;;;;;;;;;10566623;28;20030;-84
2023/07/01 18:50:27;;;;;;;23.13;16.77;;;;;;;;;;10550735;28;20032;-85
2023/07/01 18:55:28;;;;;;;24.52;20.08;;;;;;;;;;10545085;28;20113;-84
2023/07/01 19:00:29;;;;;;;23.10;17.92;;;;;;;;;;10543603;28;20174;-84
2023/07/01 19:05:30;;;;;;;21.60;17.02;;;;;;;;;;10536618;28;20027;-85
2023/07/01 19:10:32;;;;;;;23.33;17.92;;;;;;;;;;10515903;28;20057;-86
2023/07/01 19:15:33;;;;;;;25.52;20.10;;;;;;;;;;10526532;28;20055;-85
2023/07/01 19:20:49;;;;;;;29.90;23.98;;;;;;;;;;10564483;28;20549;-84
2023/07/01 19:25:50;;;;;;;21.48;16.67;;;;;;;;;;10549626;28;20046;-85
2023/07/01 19:30:51;;;;;;;21.77;16.88;;;;;;;;;;10527620;28;20089;-85
2023/07/01 19:35:53;;;;;;;26.25;18.10;;;;;;;;;;10525932;28;20074;-85
2023/07/01 19:40:54;;;;;;;24.67;17.55;;;;;;;;;;10539164;28;20031;-84
2023/07/01 19:45:55;;;;;;;20.33;15.48;;;;;;;;;;10552444;28;20028;-84
2023/07/01 19:50:56;;;;;;;20.95;15.43;;;;;;;;;;10514583;28;20027;-86
2023/07/01 19:55:59;;;;;;;20.92;15.77;;;;;;;;;;10541796;28;20024;-86
2023/07/01 20:01:00;;;;;;;21.67;16.77;;;;;;;;;;10548887;28;20402;-86
2023/07/01 20:06:01;;;;;;;30.50;22.50;;;;;;;;;;10549984;28;20040;-86
2023/07/01 20:11:02;;;;;;;29.48;23.13;;;;;;;;;;10534276;28;20516;-84
2023/07/01 20:16:03;;;;;;;37.20;26.50;;;;;;;;;;10529309;28;20070;-85
2023/07/01 20:21:05;;;;;;;35.33;26.08;;;;;;;;;;10554264;28;20032;-86
2023/07/01 20:26:06;;;;;;;36.22;27.30;;;;;;;;;;10540334;28;20097;-87
2023/07/01 20:31:07;;;;;;;36.67;27.08;;;;;;;;;;10563193;28;20035;-85
2023/07/01 20:36:08;;;;;;;36.05;26.40;;;;;;;;;;10566687;28;20627;-85
2023/07/01 20:41:09;;;;;;;39.53;29.40;;;;;;;;;;10574354;28;20084;-86
2023/07/01 20:46:11;;;;;;;37.22;27.67;;;;;;;;;;10574129;28;20080;-87
2023/07/01 20:51:12;;;;;;;36.65;25.58;;;;;;;;;;10573265;28;20096;-87
2023/07/01 20:56:13;;;;;;;35.15;26.92;;;;;;;;;;10568886;28;20040;-85
2023/07/01 21:01:14;;;;;;;38.88;28.90;;;;;;;;;;10523183;28;20032;-86
2023/07/01 21:06:15;;;;;;;37.65;27.85;;;;;;;;;;10536512;28;20038;-87
2023/07/01 21:11:16;;;;;;;39.25;28.52;;;;;;;;;;10537940;28;20047;-85
2023/07/01 21:16:17;;;;;;;36.03;27.58;;;;;;;;;;10526069;28;20177;-86
2023/07/01 21:21:18;;;;;;;34.28;25.48;;;;;;;;;;10553545;28;20482;-85
2023/07/01 21:26:24;;;;;;;26.95;22.05;;;;;;;;;;10522998;28;20046;-85
2023/07/01 21:31:25;;;;;;;;;;;;;;;;;;10524331;28;20055;-85
2023/07/01 21:36:26;;;;;;;23.58;18.27;;;;;;;;;;10546754;28;19938;-86
2023/07/01 21:41:27;;;;;;;22.33;17.33;;;;;;;;;;10546562;28;20019;-86
2023/07/01 21:46:29;;;;;;;25.38;18.77;;;;;;;;;;10551336;28;20525;-85
2023/07/01 21:51:31;;;;;;;25.05;18.50;;;;;;;;;;10551410;28;20031;-85
2023/07/01 21:56:42;;;;;;;23.75;18.00;;;;;;;;;;10562417;28;20034;-85
2023/07/01 22:01:45;;;;;;;24.33;17.27;;;;;;;;;;10534909;28;20027;-86
2023/07/01 22:06:47;;;;;;;26.92;19.77;;;;;;;;;;10539029;28;20031;-85
2023/07/01 22:11:49;;;;;;;22.45;17.08;;;;;;;;;;10568867;28;20036;-85
2023/07/01 22:16:49;;;;;;;23.98;17.20;;;;;;;;;;10551920;28;20096;-85
2023/07/01 22:21:50;;;;;;;21.70;16.15;;;;;;;;;;10556819;28;20092;-85
2023/07/01 22:26:51;;;;;;;17.58;13.73;;;;;;;;;;10521670;28;20027;-85
2023/07/01 22:31:52;;;;;;;17.23;12.32;;;;;;;;;;10551368;28;20030;-85
2023/07/01 22:36:57;;;;;;;16.55;11.63;;;;;;;;;;10569422;28;20031;-85
2023/07/01 22:42:01;;;;;;;20.90;14.63;;;;;;;;;;10541194;28;20024;-86
2023/07/01 22:47:02;;;;;;;21.33;14.07;;;;;;;;;;10567811;28;20342;-86
2023/07/01 22:52:03;;;;;;;17.85;12.73;;;;;;;;;;10569643;28;20161;-86
2023/07/01 22:57:04;;;;;;;22.10;12.88;;;;;;;;;;10570862;28;20063;-85
2023/07/01 23:02:05;;;;;;;24.35;13.20;;;;;;;;;;10551258;28;20473;-85
2023/07/01 23:07:06;;;;;;;21.83;13.27;;;;;;;;;;10545666;28;20578;-85
2023/07/01 23:12:08;;;;;;;18.77;12.45;;;;;;;;;;10554915;28;20100;-85
2023/07/01 23:17:09;;;;;;;18.48;13.52;;;;;;;;;;10538177;28;20802;-86
2023/07/01 23:22:12;;;;;;;21.85;13.55;;;;;;;;;;10549333;28;20031;-84
2023/07/01 23:27:17;;;;;;;21.58;14.80;;;;;;;;;;10555358;28;20031;-84
2023/07/01 23:32:28;;;;;;;18.90;13.47;;;;;;;;;;10557434;28;20313;-85
2023/07/01 23:37:29;;;;;;;18.00;13.55;;;;;;;;;;10520947;28;20044;-85
2023/07/01 23:42:32;;;;;;;20.88;15.00;;;;;;;;;;10551601;28;20055;-85
2023/07/01 23:47:33;;;;;;;20.95;14.70;;;;;;;;;;10540118;28;20032;-85
2023/07/01 23:52:34;;;;;;;19.17;13.73;;;;;;;;;;10540420;28;20041;-86
2023/07/01 23:57:36;;;;;;;25.23;16.67;;;;;;;;;;10546423;28;20050;-86
